sensor_id;sensor_type;location;lat;lon;timestamp;P1;durP1;ratioP1;P2;durP2;ratioP2
14740;SDS011;7462;53.530;9.414;2023-04-15T00:02:13;11.50;;;9.57;;
14740;SDS011;7462;53.530;9.414;2023-04-15T00:04:42;12.10;;;10.03;;
14740;SDS011;7462;53.530;9.414;2023-04-15T00:07:10;11.13;;;9.23;;
14740;SDS011;7462;53.530;9.414;2023-04-15T00:09:38;11.90;;;10.30;;
14740;SDS011;7462;53.530;9.414;2023-04-15T00:12:07;12.53;;;10.60;;
14740;SDS011;7462;53.530;9.414;2023-04-15T00:14:35;11.90;;;10.17;;
14740;SDS011;7462;53.530;9.414;2023-04-15T00:17:05;11.23;;;10.03;;
14740;SDS011;7462;53.530;9.414;2023-04-15T00:19:33;11.47;;;10.20;;
14740;SDS011;7462;53.530;9.414;2023-04-15T00:22:02;11.80;;;9.77;;
14740;SDS011;7462;53.530;9.414;2023-04-15T00:24:30;11.00;;;9.67;;
14740;SDS011;7462;53.530;9.414;2023-04-15T00:26:58;12.07;;;10.60;;
14740;SDS011;7462;53.530;9.414;2023-04-15T00:29:26;11.43;;;9.90;;
14740;SDS011;7462;53.530;9.414;2023-04-15T00:31:54;11.83;;;10.10;;
14740;SDS011;7462;53.530;9.414;2023-04-15T00:34:25;10.00;;;9.00;;
14740;SDS011;7462;53.530;9.414;2023-04-15T00:36:54;10.70;;;8.87;;
14740;SDS011;7462;53.530;9.414;2023-04-15T00:39:22;9.57;;;7.93;;
14740;SDS011;7462;53.530;9.414;2023-04-15T00:41:50;9.33;;;7.80;;
14740;SDS011;7462;53.530;9.414;2023-04-15T00:44:18;9.17;;;8.07;;
14740;SDS011;7462;53.530;9.414;2023-04-15T00:46:46;9.13;;;8.17;;
14740;SDS011;7462;53.530;9.414;2023-04-15T00:49:17;9.30;;;8.30;;
14740;SDS011;7462;53.530;9.414;2023-04-15T00:51:46;8.97;;;7.20;;
14740;SDS011;7462;53.530;9.414;2023-04-15T00:54:14;8.47;;;7.03;;
14740;SDS011;7462;53.530;9.414;2023-04-15T00:56:43;8.00;;;7.20;;
14740;SDS011;7462;53.530;9.414;2023-04-15T00:59:13;7.47;;;6.70;;
14740;SDS011;7462;53.530;9.414;2023-04-15T01:01:42;8.03;;;6.73;;
14740;SDS011;7462;53.530;9.414;2023-04-15T01:04:11;8.00;;;6.93;;
14740;SDS011;7462;53.530;9.414;2023-04-15T01:06:40;7.57;;;6.77;;
14740;SDS011;7462;53.530;9.414;2023-04-15T01:09:10;7.83;;;6.13;;
14740;SDS011;7462;53.530;9.414;2023-04-15T01:11:38;8.00;;;6.00;;
14740;SDS011;7462;53.530;9.414;2023-04-15T01:14:07;7.33;;;5.70;;
14740;SDS011;7462;53.530;9.414;2023-04-15T01:16:36;7.37;;;5.50;;
14740;SDS011;7462;53.530;9.414;2023-04-15T01:19:06;6.33;;;5.37;;
14740;SDS011;7462;53.530;9.414;2023-04-15T01:21:35;6.03;;;5.43;;
14740;SDS011;7462;53.530;9.414;2023-04-15T01:24:05;5.97;;;5.03;;
14740;SDS011;7462;53.530;9.414;2023-04-15T01:26:41;6.73;;;4.90;;
14740;SDS011;7462;53.530;9.414;2023-04-15T01:29:10;6.20;;;5.20;;
14740;SDS011;7462;53.530;9.414;2023-04-15T01:31:38;5.43;;;4.93;;
14740;SDS011;7462;53.530;9.414;2023-04-15T01:34:06;5.37;;;4.80;;
14740;SDS011;7462;53.530;9.414;2023-04-15T01:36:34;6.63;;;5.67;;
14740;SDS011;7462;53.530;9.414;2023-04-15T01:39:02;5.63;;;4.93;;
14740;SDS011;7462;53.530;9.414;2023-04-15T01:41:31;8.17;;;5.33;;
14740;SDS011;7462;53.530;9.414;2023-04-15T01:44:01;6.37;;;5.63;;
14740;SDS011;7462;53.530;9.414;2023-04-15T01:46:29;6.40;;;5.57;;
14740;SDS011;7462;53.530;9.414;2023-04-15T01:48:58;6.83;;;6.13;;
14740;SDS011;7462;53.530;9.414;2023-04-15T01:51:27;6.97;;;5.93;;
14740;SDS011;7462;53.530;9.414;2023-04-15T01:53:55;7.93;;;6.80;;
14740;SDS011;7462;53.530;9.414;2023-04-15T01:56:23;8.40;;;6.80;;
14740;SDS011;7462;53.530;9.414;2023-04-15T01:58:52;8.93;;;7.93;;
14740;SDS011;7462;53.530;9.414;2023-04-15T02:01:21;8.80;;;7.87;;
14740;SDS011;7462;53.530;9.414;2023-04-15T02:03:52;9.03;;;7.50;;
14740;SDS011;7462;53.530;9.414;2023-04-15T02:06:20;9.33;;;8.33;;
14740;SDS011;7462;53.530;9.414;2023-04-15T02:08:48;9.60;;;8.17;;
14740;SDS011;7462;53.530;9.414;2023-04-15T02:11:16;10.47;;;9.20;;
14740;SDS011;7462;53.530;9.414;2023-04-15T02:13:45;12.43;;;9.63;;
14740;SDS011;7462;53.530;9.414;2023-04-15T02:16:16;10.53;;;9.43;;
14740;SDS011;7462;53.530;9.414;2023-04-15T02:18:46;11.33;;;9.83;;
14740;SDS011;7462;53.530;9.414;2023-04-15T02:21:14;12.20;;;9.40;;
14740;SDS011;7462;53.530;9.414;2023-04-15T02:23:44;11.77;;;10.57;;
14740;SDS011;7462;53.530;9.414;2023-04-15T02:26:13;12.03;;;10.30;;
14740;SDS011;7462;53.530;9.414;2023-04-15T02:28:42;12.53;;;11.03;;
14740;SDS011;7462;53.530;9.414;2023-04-15T02:31:13;12.17;;;10.03;;
14740;SDS011;7462;53.530;9.414;2023-04-15T02:33:41;11.60;;;10.40;;
14740;SDS011;7462;53.530;9.414;2023-04-15T02:36:10;13.77;;;11.67;;
14740;SDS011;7462;53.530;9.414;2023-04-15T02:38:38;14.73;;;11.90;;
14740;SDS011;7462;53.530;9.414;2023-04-15T02:41:08;13.23;;;11.57;;
14740;SDS011;7462;53.530;9.414;2023-04-15T02:43:37;13.97;;;10.97;;
14740;SDS011;7462;53.530;9.414;2023-04-15T02:46:06;12.20;;;10.73;;
14740;SDS011;7462;53.530;9.414;2023-04-15T02:48:38;13.23;;;11.47;;
14740;SDS011;7462;53.530;9.414;2023-04-15T02:51:12;13.80;;;11.53;;
14740;SDS011;7462;53.530;9.414;2023-04-15T02:53:42;13.63;;;11.77;;
14740;SDS011;7462;53.530;9.414;2023-04-15T02:56:10;13.53;;;11.63;;
14740;SDS011;7462;53.530;9.414;2023-04-15T02:58:38;13.87;;;11.50;;
14740;SDS011;7462;53.530;9.414;2023-04-15T03:01:07;15.10;;;12.17;;
14740;SDS011;7462;53.530;9.414;2023-04-15T03:03:35;14.53;;;12.57;;
14740;SDS011;7462;53.530;9.414;2023-04-15T03:06:04;12.83;;;11.33;;
14740;SDS011;7462;53.530;9.414;2023-04-15T03:08:33;13.00;;;11.03;;
14740;SDS011;7462;53.530;9.414;2023-04-15T03:11:02;14.37;;;12.43;;
14740;SDS011;7462;53.530;9.414;2023-04-15T03:13:32;15.03;;;11.47;;
14740;SDS011;7462;53.530;9.414;2023-04-15T03:16:08;14.43;;;12.43;;
14740;SDS011;7462;53.530;9.414;2023-04-15T03:18:37;14.87;;;12.20;;
14740;SDS011;7462;53.530;9.414;2023-04-15T03:21:05;14.37;;;12.23;;
14740;SDS011;7462;53.530;9.414;2023-04-15T03:23:37;13.90;;;12.17;;
14740;SDS011;7462;53.530;9.414;2023-04-15T03:26:05;14.83;;;12.73;;
14740;SDS011;7462;53.530;9.414;2023-04-15T03:28:35;14.37;;;11.50;;
14740;SDS011;7462;53.530;9.414;2023-04-15T03:31:03;15.53;;;11.87;;
14740;SDS011;7462;53.530;9.414;2023-04-15T03:33:31;14.50;;;12.07;;
14740;SDS011;7462;53.530;9.414;2023-04-15T03:35:59;12.87;;;11.00;;
14740;SDS011;7462;53.530;9.414;2023-04-15T03:38:27;14.33;;;11.63;;
14740;SDS011;7462;53.530;9.414;2023-04-15T03:40:57;15.57;;;11.47;;
14740;SDS011;7462;53.530;9.414;2023-04-15T03:43:25;12.93;;;10.83;;
14740;SDS011;7462;53.530;9.414;2023-04-15T03:45:53;12.80;;;11.20;;
14740;SDS011;7462;53.530;9.414;2023-04-15T03:48:21;12.13;;;10.43;;
14740;SDS011;7462;53.530;9.414;2023-04-15T03:50:49;11.70;;;10.47;;
14740;SDS011;7462;53.530;9.414;2023-04-15T03:53:18;12.43;;;10.13;;
14740;SDS011;7462;53.530;9.414;2023-04-15T03:55:47;11.90;;;10.17;;
14740;SDS011;7462;53.530;9.414;2023-04-15T03:58:16;12.00;;;10.00;;
14740;SDS011;7462;53.530;9.414;2023-04-15T04:00:44;11.13;;;9.53;;
14740;SDS011;7462;53.530;9.414;2023-04-15T04:03:12;11.40;;;9.10;;
14740;SDS011;7462;53.530;9.414;2023-04-15T04:05:41;11.77;;;10.10;;
14740;SDS011;7462;53.530;9.414;2023-04-15T04:08:09;12.13;;;9.87;;
14740;SDS011;7462;53.530;9.414;2023-04-15T04:10:39;11.83;;;10.10;;
14740;SDS011;7462;53.530;9.414;2023-04-15T04:13:07;11.90;;;10.00;;
14740;SDS011;7462;53.530;9.414;2023-04-15T04:15:36;11.67;;;9.80;;
14740;SDS011;7462;53.530;9.414;2023-04-15T04:18:05;11.60;;;9.70;;
14740;SDS011;7462;53.530;9.414;2023-04-15T04:20:33;12.03;;;10.50;;
14740;SDS011;7462;53.530;9.414;2023-04-15T04:23:01;10.87;;;9.17;;
14740;SDS011;7462;53.530;9.414;2023-04-15T04:25:29;11.23;;;9.53;;
14740;SDS011;7462;53.530;9.414;2023-04-15T04:27:57;11.30;;;9.80;;
14740;SDS011;7462;53.530;9.414;2023-04-15T04:30:25;11.23;;;10.03;;
14740;SDS011;7462;53.530;9.414;2023-04-15T04:32:55;10.27;;;9.17;;
14740;SDS011;7462;53.530;9.414;2023-04-15T04:35:23;11.37;;;10.17;;
14740;SDS011;7462;53.530;9.414;2023-04-15T04:37:51;11.13;;;9.63;;
14740;SDS011;7462;53.530;9.414;2023-04-15T04:40:19;10.10;;;8.87;;
14740;SDS011;7462;53.530;9.414;2023-04-15T04:42:47;11.10;;;9.50;;
14740;SDS011;7462;53.530;9.414;2023-04-15T04:45:15;10.47;;;9.27;;
14740;SDS011;7462;53.530;9.414;2023-04-15T04:47:43;10.67;;;9.30;;
14740;SDS011;7462;53.530;9.414;2023-04-15T04:50:13;11.00;;;9.30;;
14740;SDS011;7462;53.530;9.414;2023-04-15T04:52:41;11.13;;;9.30;;
14740;SDS011;7462;53.530;9.414;2023-04-15T04:55:10;11.50;;;9.53;;
14740;SDS011;7462;53.530;9.414;2023-04-15T04:57:38;9.80;;;8.80;;
14740;SDS011;7462;53.530;9.414;2023-04-15T05:00:07;11.10;;;9.37;;
14740;SDS011;7462;53.530;9.414;2023-04-15T05:02:35;10.87;;;8.90;;
14740;SDS011;7462;53.530;9.414;2023-04-15T05:05:04;11.17;;;9.37;;
14740;SDS011;7462;53.530;9.414;2023-04-15T05:07:37;9.40;;;8.40;;
14740;SDS011;7462;53.530;9.414;2023-04-15T05:10:06;9.73;;;8.73;;
14740;SDS011;7462;53.530;9.414;2023-04-15T05:12:35;9.93;;;8.93;;
14740;SDS011;7462;53.530;9.414;2023-04-15T05:15:04;9.47;;;8.33;;
14740;SDS011;7462;53.530;9.414;2023-04-15T05:17:35;9.57;;;8.20;;
14740;SDS011;7462;53.530;9.414;2023-04-15T05:20:04;9.43;;;8.07;;
14740;SDS011;7462;53.530;9.414;2023-04-15T05:22:33;10.30;;;8.10;;
14740;SDS011;7462;53.530;9.414;2023-04-15T05:25:03;9.00;;;7.90;;
14740;SDS011;7462;53.530;9.414;2023-04-15T05:27:31;9.50;;;8.30;;
14740;SDS011;7462;53.530;9.414;2023-04-15T05:29:59;8.27;;;7.47;;
14740;SDS011;7462;53.530;9.414;2023-04-15T05:32:28;9.20;;;8.00;;
14740;SDS011;7462;53.530;9.414;2023-04-15T05:34:56;8.67;;;7.77;;
14740;SDS011;7462;53.530;9.414;2023-04-15T05:37:24;9.47;;;8.13;;
14740;SDS011;7462;53.530;9.414;2023-04-15T05:39:52;9.27;;;7.90;;
14740;SDS011;7462;53.530;9.414;2023-04-15T05:42:22;9.20;;;7.97;;
14740;SDS011;7462;53.530;9.414;2023-04-15T05:44:50;8.87;;;7.97;;
14740;SDS011;7462;53.530;9.414;2023-04-15T05:47:18;9.00;;;7.43;;
14740;SDS011;7462;53.530;9.414;2023-04-15T05:49:46;9.27;;;8.33;;
14740;SDS011;7462;53.530;9.414;2023-04-15T05:52:14;9.73;;;8.73;;
14740;SDS011;7462;53.530;9.414;2023-04-15T05:54:42;9.40;;;8.10;;
14740;SDS011;7462;53.530;9.414;2023-04-15T05:57:10;9.17;;;8.17;;
14740;SDS011;7462;53.530;9.414;2023-04-15T05:59:40;9.80;;;8.33;;
14740;SDS011;7462;53.530;9.414;2023-04-15T06:02:08;9.63;;;8.50;;
14740;SDS011;7462;53.530;9.414;2023-04-15T06:04:37;11.27;;;9.87;;
14740;SDS011;7462;53.530;9.414;2023-04-15T06:07:05;10.23;;;9.20;;
14740;SDS011;7462;53.530;9.414;2023-04-15T06:09:34;10.57;;;9.20;;
14740;SDS011;7462;53.530;9.414;2023-04-15T06:12:02;12.70;;;9.80;;
14740;SDS011;7462;53.530;9.414;2023-04-15T06:14:31;12.13;;;9.83;;
14740;SDS011;7462;53.530;9.414;2023-04-15T06:17:01;12.67;;;9.63;;
14740;SDS011;7462;53.530;9.414;2023-04-15T06:19:29;11.77;;;10.10;;
14740;SDS011;7462;53.530;9.414;2023-04-15T06:21:57;11.63;;;9.63;;
14740;SDS011;7462;53.530;9.414;2023-04-15T06:24:26;11.00;;;9.50;;
14740;SDS011;7462;53.530;9.414;2023-04-15T06:26:54;12.33;;;10.60;;
14740;SDS011;7462;53.530;9.414;2023-04-15T06:29:22;13.43;;;10.70;;
14740;SDS011;7462;53.530;9.414;2023-04-15T06:31:51;13.87;;;10.70;;
14740;SDS011;7462;53.530;9.414;2023-04-15T06:34:20;13.77;;;10.93;;
14740;SDS011;7462;53.530;9.414;2023-04-15T06:36:49;14.17;;;12.10;;
14740;SDS011;7462;53.530;9.414;2023-04-15T06:39:17;16.27;;;11.90;;
14740;SDS011;7462;53.530;9.414;2023-04-15T06:41:45;14.17;;;11.90;;
14740;SDS011;7462;53.530;9.414;2023-04-15T06:44:13;17.33;;;13.73;;
14740;SDS011;7462;53.530;9.414;2023-04-15T06:46:41;16.53;;;12.70;;
14740;SDS011;7462;53.530;9.414;2023-04-15T06:49:09;18.03;;;13.97;;
14740;SDS011;7462;53.530;9.414;2023-04-15T06:51:39;17.40;;;13.80;;
14740;SDS011;7462;53.530;9.414;2023-04-15T06:54:08;18.67;;;13.80;;
14740;SDS011;7462;53.530;9.414;2023-04-15T06:56:36;18.73;;;14.17;;
14740;SDS011;7462;53.530;9.414;2023-04-15T06:59:05;20.70;;;15.53;;
14740;SDS011;7462;53.530;9.414;2023-04-15T07:01:33;20.93;;;15.50;;
14740;SDS011;7462;53.530;9.414;2023-04-15T07:04:02;20.03;;;15.37;;
14740;SDS011;7462;53.530;9.414;2023-04-15T07:06:30;22.20;;;16.50;;
14740;SDS011;7462;53.530;9.414;2023-04-15T07:09:00;21.70;;;16.73;;
14740;SDS011;7462;53.530;9.414;2023-04-15T07:11:31;24.23;;;17.37;;
14740;SDS011;7462;53.530;9.414;2023-04-15T07:13:59;22.47;;;16.43;;
14740;SDS011;7462;53.530;9.414;2023-04-15T07:16:27;21.90;;;16.77;;
14740;SDS011;7462;53.530;9.414;2023-04-15T07:18:55;24.90;;;18.40;;
14740;SDS011;7462;53.530;9.414;2023-04-15T07:21:24;23.17;;;17.37;;
14740;SDS011;7462;53.530;9.414;2023-04-15T07:23:53;25.37;;;18.23;;
14740;SDS011;7462;53.530;9.414;2023-04-15T07:26:23;25.07;;;18.40;;
14740;SDS011;7462;53.530;9.414;2023-04-15T07:28:51;25.57;;;18.60;;
14740;SDS011;7462;53.530;9.414;2023-04-15T07:31:19;23.33;;;18.57;;
14740;SDS011;7462;53.530;9.414;2023-04-15T07:33:47;24.97;;;18.93;;
14740;SDS011;7462;53.530;9.414;2023-04-15T07:36:15;26.97;;;19.90;;
14740;SDS011;7462;53.530;9.414;2023-04-15T07:38:44;24.60;;;18.77;;
14740;SDS011;7462;53.530;9.414;2023-04-15T07:41:12;27.37;;;19.80;;
14740;SDS011;7462;53.530;9.414;2023-04-15T07:43:42;23.53;;;19.13;;
14740;SDS011;7462;53.530;9.414;2023-04-15T07:46:10;26.13;;;19.40;;
14740;SDS011;7462;53.530;9.414;2023-04-15T07:48:38;25.57;;;19.63;;
14740;SDS011;7462;53.530;9.414;2023-04-15T07:51:06;28.80;;;20.17;;
14740;SDS011;7462;53.530;9.414;2023-04-15T07:53:36;27.57;;;19.70;;
14740;SDS011;7462;53.530;9.414;2023-04-15T07:56:04;27.53;;;19.27;;
14740;SDS011;7462;53.530;9.414;2023-04-15T07:58:32;26.50;;;20.33;;
14740;SDS011;7462;53.530;9.414;2023-04-15T08:01:03;28.40;;;20.50;;
14740;SDS011;7462;53.530;9.414;2023-04-15T08:03:32;27.00;;;19.57;;
14740;SDS011;7462;53.530;9.414;2023-04-15T08:06:00;29.10;;;20.57;;
14740;SDS011;7462;53.530;9.414;2023-04-15T08:08:29;29.60;;;21.00;;
14740;SDS011;7462;53.530;9.414;2023-04-15T08:10:57;29.40;;;20.53;;
14740;SDS011;7462;53.530;9.414;2023-04-15T08:13:26;28.83;;;21.27;;
14740;SDS011;7462;53.530;9.414;2023-04-15T08:18:43;28.20;;;20.07;;
14740;SDS011;7462;53.530;9.414;2023-04-15T08:21:12;28.20;;;20.23;;
14740;SDS011;7462;53.530;9.414;2023-04-15T08:23:40;31.47;;;20.83;;
14740;SDS011;7462;53.530;9.414;2023-04-15T08:26:09;29.97;;;20.43;;
14740;SDS011;7462;53.530;9.414;2023-04-15T08:28:37;30.13;;;20.83;;
14740;SDS011;7462;53.530;9.414;2023-04-15T08:31:08;33.33;;;21.53;;
14740;SDS011;7462;53.530;9.414;2023-04-15T08:33:38;28.27;;;19.57;;
14740;SDS011;7462;53.530;9.414;2023-04-15T08:36:06;31.47;;;21.43;;
14740;SDS011;7462;53.530;9.414;2023-04-15T08:38:35;29.07;;;20.47;;
14740;SDS011;7462;53.530;9.414;2023-04-15T08:41:06;32.30;;;21.37;;
14740;SDS011;7462;53.530;9.414;2023-04-15T08:43:39;34.77;;;22.47;;
14740;SDS011;7462;53.530;9.414;2023-04-15T08:46:15;32.87;;;22.57;;
14740;SDS011;7462;53.530;9.414;2023-04-15T08:48:46;37.90;;;24.77;;
14740;SDS011;7462;53.530;9.414;2023-04-15T08:51:15;38.50;;;24.93;;
14740;SDS011;7462;53.530;9.414;2023-04-15T08:53:44;38.77;;;25.20;;
14740;SDS011;7462;53.530;9.414;2023-04-15T08:56:14;37.47;;;25.67;;
14740;SDS011;7462;53.530;9.414;2023-04-15T08:58:43;34.47;;;24.40;;
14740;SDS011;7462;53.530;9.414;2023-04-15T09:01:14;39.90;;;26.67;;
14740;SDS011;7462;53.530;9.414;2023-04-15T09:03:43;41.93;;;27.90;;
14740;SDS011;7462;53.530;9.414;2023-04-15T09:06:13;45.13;;;29.90;;
14740;SDS011;7462;53.530;9.414;2023-04-15T09:08:43;44.60;;;30.57;;
14740;SDS011;7462;53.530;9.414;2023-04-15T09:11:11;48.00;;;30.23;;
14740;SDS011;7462;53.530;9.414;2023-04-15T09:13:39;48.27;;;31.03;;
14740;SDS011;7462;53.530;9.414;2023-04-15T09:16:08;46.23;;;30.67;;
14740;SDS011;7462;53.530;9.414;2023-04-15T09:18:37;44.00;;;30.23;;
14740;SDS011;7462;53.530;9.414;2023-04-15T09:21:05;51.53;;;31.63;;
14740;SDS011;7462;53.530;9.414;2023-04-15T09:23:38;45.77;;;31.20;;
14740;SDS011;7462;53.530;9.414;2023-04-15T09:26:07;50.10;;;31.80;;
14740;SDS011;7462;53.530;9.414;2023-04-15T09:28:40;44.97;;;31.60;;
14740;SDS011;7462;53.530;9.414;2023-04-15T09:31:09;49.47;;;33.20;;
14740;SDS011;7462;53.530;9.414;2023-04-15T09:33:53;45.10;;;31.37;;
14740;SDS011;7462;53.530;9.414;2023-04-15T09:36:22;50.13;;;32.30;;
14740;SDS011;7462;53.530;9.414;2023-04-15T09:38:56;50.10;;;33.70;;
14740;SDS011;7462;53.530;9.414;2023-04-15T09:41:25;47.83;;;33.70;;
14740;SDS011;7462;53.530;9.414;2023-04-15T09:43:54;50.77;;;34.27;;
14740;SDS011;7462;53.530;9.414;2023-04-15T09:46:38;50.63;;;35.17;;
14740;SDS011;7462;53.530;9.414;2023-04-15T09:49:07;52.77;;;34.03;;
14740;SDS011;7462;53.530;9.414;2023-04-15T09:51:36;56.20;;;35.97;;
14740;SDS011;7462;53.530;9.414;2023-04-15T09:54:06;54.07;;;34.93;;
14740;SDS011;7462;53.530;9.414;2023-04-15T09:56:35;53.27;;;35.67;;
14740;SDS011;7462;53.530;9.414;2023-04-15T09:59:08;52.87;;;37.07;;
14740;SDS011;7462;53.530;9.414;2023-04-15T10:01:37;51.37;;;35.67;;
14740;SDS011;7462;53.530;9.414;2023-04-15T10:04:07;53.33;;;36.67;;
14740;SDS011;7462;53.530;9.414;2023-04-15T10:06:36;56.53;;;37.70;;
14740;SDS011;7462;53.530;9.414;2023-04-15T10:09:07;56.20;;;37.57;;
14740;SDS011;7462;53.530;9.414;2023-04-15T10:11:35;54.33;;;36.07;;
14740;SDS011;7462;53.530;9.414;2023-04-15T10:14:03;57.50;;;38.03;;
14740;SDS011;7462;53.530;9.414;2023-04-15T10:16:33;54.60;;;36.60;;
14740;SDS011;7462;53.530;9.414;2023-04-15T10:19:07;58.00;;;38.37;;
14740;SDS011;7462;53.530;9.414;2023-04-15T10:21:36;55.07;;;38.23;;
14740;SDS011;7462;53.530;9.414;2023-04-15T10:24:07;56.07;;;38.47;;
14740;SDS011;7462;53.530;9.414;2023-04-15T10:26:35;57.20;;;38.87;;
14740;SDS011;7462;53.530;9.414;2023-04-15T10:29:04;52.70;;;36.37;;
14740;SDS011;7462;53.530;9.414;2023-04-15T10:31:32;56.50;;;36.93;;
14740;SDS011;7462;53.530;9.414;2023-04-15T10:34:03;51.00;;;35.87;;
14740;SDS011;7462;53.530;9.414;2023-04-15T10:36:32;50.40;;;35.47;;
14740;SDS011;7462;53.530;9.414;2023-04-15T10:39:00;50.60;;;35.93;;
14740;SDS011;7462;53.530;9.414;2023-04-15T10:41:30;47.23;;;33.63;;
14740;SDS011;7462;53.530;9.414;2023-04-15T10:44:00;47.23;;;34.90;;
14740;SDS011;7462;53.530;9.414;2023-04-15T10:46:34;46.53;;;33.43;;
14740;SDS011;7462;53.530;9.414;2023-04-15T10:49:07;48.17;;;32.80;;
14740;SDS011;7462;53.530;9.414;2023-04-15T10:51:37;43.03;;;33.23;;
14740;SDS011;7462;53.530;9.414;2023-04-15T10:54:08;44.40;;;33.10;;
14740;SDS011;7462;53.530;9.414;2023-04-15T10:56:41;44.73;;;33.30;;
14740;SDS011;7462;53.530;9.414;2023-04-15T10:59:10;39.77;;;31.30;;
14740;SDS011;7462;53.530;9.414;2023-04-15T11:01:54;42.50;;;32.47;;
14740;SDS011;7462;53.530;9.414;2023-04-15T11:13:24;37.93;;;29.80;;
14740;SDS011;7462;53.530;9.414;2023-04-15T11:15:54;39.90;;;29.87;;
14740;SDS011;7462;53.530;9.414;2023-04-15T11:18:28;42.80;;;31.00;;
14740;SDS011;7462;53.530;9.414;2023-04-15T11:20:58;38.83;;;30.30;;
14740;SDS011;7462;53.530;9.414;2023-04-15T11:23:29;39.60;;;30.50;;
14740;SDS011;7462;53.530;9.414;2023-04-15T11:26:03;38.57;;;30.47;;
14740;SDS011;7462;53.530;9.414;2023-04-15T11:28:38;38.47;;;29.63;;
14740;SDS011;7462;53.530;9.414;2023-04-15T11:31:08;37.37;;;29.40;;
14740;SDS011;7462;53.530;9.414;2023-04-15T11:33:43;41.30;;;30.80;;
14740;SDS011;7462;53.530;9.414;2023-04-15T11:36:12;37.43;;;29.87;;
14740;SDS011;7462;53.530;9.414;2023-04-15T11:38:41;39.57;;;30.17;;
14740;SDS011;7462;53.530;9.414;2023-04-15T11:41:10;36.53;;;29.63;;
14740;SDS011;7462;53.530;9.414;2023-04-15T11:43:40;38.83;;;28.67;;
14740;SDS011;7462;53.530;9.414;2023-04-15T11:46:08;36.67;;;28.90;;
14740;SDS011;7462;53.530;9.414;2023-04-15T11:48:40;35.23;;;27.97;;
14740;SDS011;7462;53.530;9.414;2023-04-15T11:51:10;36.50;;;28.13;;
14740;SDS011;7462;53.530;9.414;2023-04-15T11:53:39;33.10;;;27.77;;
14740;SDS011;7462;53.530;9.414;2023-04-15T11:56:08;33.33;;;26.80;;
14740;SDS011;7462;53.530;9.414;2023-04-15T11:58:37;35.37;;;26.80;;
14740;SDS011;7462;53.530;9.414;2023-04-15T12:01:08;33.27;;;26.33;;
14740;SDS011;7462;53.530;9.414;2023-04-15T12:03:37;33.17;;;27.30;;
14740;SDS011;7462;53.530;9.414;2023-04-15T12:06:10;31.07;;;26.77;;
14740;SDS011;7462;53.530;9.414;2023-04-15T12:11:42;30.37;;;25.07;;
14740;SDS011;7462;53.530;9.414;2023-04-15T12:14:15;29.10;;;25.03;;
14740;SDS011;7462;53.530;9.414;2023-04-15T12:16:48;29.00;;;24.63;;
14740;SDS011;7462;53.530;9.414;2023-04-15T12:19:21;28.57;;;24.27;;
14740;SDS011;7462;53.530;9.414;2023-04-15T12:21:50;28.27;;;25.10;;
14740;SDS011;7462;53.530;9.414;2023-04-15T12:24:20;29.37;;;23.93;;
14740;SDS011;7462;53.530;9.414;2023-04-15T12:26:49;29.23;;;24.17;;
14740;SDS011;7462;53.530;9.414;2023-04-15T12:29:24;29.13;;;24.27;;
14740;SDS011;7462;53.530;9.414;2023-04-15T12:31:53;30.00;;;23.93;;
14740;SDS011;7462;53.530;9.414;2023-04-15T12:34:26;26.27;;;23.43;;
14740;SDS011;7462;53.530;9.414;2023-04-15T12:36:56;29.83;;;24.70;;
14740;SDS011;7462;53.530;9.414;2023-04-15T12:39:26;26.73;;;21.70;;
14740;SDS011;7462;53.530;9.414;2023-04-15T12:41:56;25.67;;;21.27;;
14740;SDS011;7462;53.530;9.414;2023-04-15T12:44:27;25.70;;;21.93;;
14740;SDS011;7462;53.530;9.414;2023-04-15T12:46:55;23.07;;;20.67;;
14740;SDS011;7462;53.530;9.414;2023-04-15T12:49:25;24.77;;;21.10;;
14740;SDS011;7462;53.530;9.414;2023-04-15T12:51:54;23.60;;;20.83;;
14740;SDS011;7462;53.530;9.414;2023-04-15T12:54:24;22.80;;;19.57;;
14740;SDS011;7462;53.530;9.414;2023-04-15T12:56:53;22.37;;;18.90;;
14740;SDS011;7462;53.530;9.414;2023-04-15T12:59:21;19.37;;;17.33;;
14740;SDS011;7462;53.530;9.414;2023-04-15T13:01:51;17.10;;;15.33;;
14740;SDS011;7462;53.530;9.414;2023-04-15T13:04:20;16.93;;;15.13;;
14740;SDS011;7462;53.530;9.414;2023-04-15T13:06:48;16.50;;;14.73;;
14740;SDS011;7462;53.530;9.414;2023-04-15T13:09:17;17.57;;;15.70;;
14740;SDS011;7462;53.530;9.414;2023-04-15T13:11:45;19.00;;;15.90;;
14740;SDS011;7462;53.530;9.414;2023-04-15T13:14:13;19.83;;;16.83;;
14740;SDS011;7462;53.530;9.414;2023-04-15T13:16:41;18.70;;;16.70;;
14740;SDS011;7462;53.530;9.414;2023-04-15T13:19:10;18.23;;;15.77;;
14740;SDS011;7462;53.530;9.414;2023-04-15T13:21:39;16.53;;;14.90;;
14740;SDS011;7462;53.530;9.414;2023-04-15T13:24:07;16.53;;;14.83;;
14740;SDS011;7462;53.530;9.414;2023-04-15T13:26:35;17.87;;;15.97;;
14740;SDS011;7462;53.530;9.414;2023-04-15T13:29:04;17.50;;;15.30;;
14740;SDS011;7462;53.530;9.414;2023-04-15T13:31:32;15.90;;;14.33;;
14740;SDS011;7462;53.530;9.414;2023-04-15T13:34:00;15.90;;;14.17;;
14740;SDS011;7462;53.530;9.414;2023-04-15T13:36:30;13.80;;;12.40;;
14740;SDS011;7462;53.530;9.414;2023-04-15T13:38:58;12.23;;;10.87;;
14740;SDS011;7462;53.530;9.414;2023-04-15T13:41:26;10.63;;;9.63;;
14740;SDS011;7462;53.530;9.414;2023-04-15T13:43:54;10.17;;;8.53;;
14740;SDS011;7462;53.530;9.414;2023-04-15T13:46:23;9.80;;;8.87;;
14740;SDS011;7462;53.530;9.414;2023-04-15T13:48:52;9.33;;;8.43;;
14740;SDS011;7462;53.530;9.414;2023-04-15T13:51:20;9.10;;;8.20;;
14740;SDS011;7462;53.530;9.414;2023-04-15T13:53:49;9.00;;;8.17;;
14740;SDS011;7462;53.530;9.414;2023-04-15T13:56:17;8.93;;;8.13;;
14740;SDS011;7462;53.530;9.414;2023-04-15T13:58:46;9.37;;;8.47;;
14740;SDS011;7462;53.530;9.414;2023-04-15T14:01:15;9.00;;;8.13;;
14740;SDS011;7462;53.530;9.414;2023-04-15T14:03:43;9.43;;;8.53;;
14740;SDS011;7462;53.530;9.414;2023-04-15T14:06:11;9.73;;;8.70;;
14740;SDS011;7462;53.530;9.414;2023-04-15T14:08:39;10.17;;;8.90;;
14740;SDS011;7462;53.530;9.414;2023-04-15T14:11:09;11.73;;;9.53;;
14740;SDS011;7462;53.530;9.414;2023-04-15T14:13:37;12.00;;;9.77;;
14740;SDS011;7462;53.530;9.414;2023-04-15T14:16:06;10.63;;;9.47;;
14740;SDS011;7462;53.530;9.414;2023-04-15T14:18:34;10.90;;;9.80;;
14740;SDS011;7462;53.530;9.414;2023-04-15T14:21:03;10.60;;;9.53;;
14740;SDS011;7462;53.530;9.414;2023-04-15T14:23:32;11.90;;;10.60;;
14740;SDS011;7462;53.530;9.414;2023-04-15T14:26:00;11.07;;;9.97;;
14740;SDS011;7462;53.530;9.414;2023-04-15T14:28:29;12.00;;;9.67;;
14740;SDS011;7462;53.530;9.414;2023-04-15T14:30:58;9.80;;;8.90;;
14740;SDS011;7462;53.530;9.414;2023-04-15T14:33:26;10.27;;;9.23;;
14740;SDS011;7462;53.530;9.414;2023-04-15T14:35:54;10.33;;;9.23;;
14740;SDS011;7462;53.530;9.414;2023-04-15T14:38:22;10.87;;;9.77;;
14740;SDS011;7462;53.530;9.414;2023-04-15T14:40:50;10.87;;;9.77;;
14740;SDS011;7462;53.530;9.414;2023-04-15T14:43:19;12.27;;;9.93;;
14740;SDS011;7462;53.530;9.414;2023-04-15T14:45:48;10.30;;;9.30;;
14740;SDS011;7462;53.530;9.414;2023-04-15T14:48:17;9.87;;;8.87;;
14740;SDS011;7462;53.530;9.414;2023-04-15T14:50:45;9.80;;;8.80;;
14740;SDS011;7462;53.530;9.414;2023-04-15T14:53:21;11.13;;;8.60;;
14740;SDS011;7462;53.530;9.414;2023-04-15T14:55:49;11.77;;;9.63;;
14740;SDS011;7462;53.530;9.414;2023-04-15T14:58:17;11.67;;;10.57;;
14740;SDS011;7462;53.530;9.414;2023-04-15T15:00:45;11.23;;;10.23;;
14740;SDS011;7462;53.530;9.414;2023-04-15T15:03:15;11.90;;;10.70;;
14740;SDS011;7462;53.530;9.414;2023-04-15T15:05:44;11.67;;;10.37;;
14740;SDS011;7462;53.530;9.414;2023-04-15T15:08:13;11.30;;;10.10;;
14740;SDS011;7462;53.530;9.414;2023-04-15T15:10:41;13.57;;;9.80;;